createdAt,value
2022-12-03T00:00:12.131Z,85.18
2022-12-03T00:03:01.054Z,85.19
2022-12-03T00:05:28.992Z,85.28
2022-12-03T00:07:56.926Z,85.29
2022-12-03T00:10:24.848Z,85.48
2022-12-03T00:12:52.597Z,85.51
2022-12-03T00:15:20.331Z,85.67
2022-12-03T00:17:48.265Z,85.32
2022-12-03T00:20:20.780Z,85.24
2022-12-03T00:22:48.758Z,85.10
2022-12-03T00:25:16.772Z,84.96
2022-12-03T00:27:44.783Z,85.42
2022-12-03T00:30:13.397Z,85.41
2022-12-03T00:32:41.064Z,85.46
2022-12-03T00:35:09.025Z,85.57
2022-12-03T00:37:36.848Z,85.61
2022-12-03T00:40:05.677Z,85.28
2022-12-03T00:42:33.531Z,85.55
2022-12-03T00:45:01.196Z,85.67
2022-12-03T00:47:28.941Z,85.88
2022-12-03T00:49:56.716Z,85.79
2022-12-03T00:52:24.454Z,85.46
2022-12-03T00:54:52.385Z,85.78
2022-12-03T00:57:20.413Z,85.76
2022-12-03T00:59:48.187Z,85.91
2022-12-03T01:02:16.022Z,85.92
2022-12-03T01:04:44.184Z,85.85
2022-12-03T01:07:11.964Z,85.49
2022-12-03T01:09:39.682Z,85.22
2022-12-03T01:12:07.418Z,85.25
2022-12-03T01:14:35.193Z,85.16
2022-12-03T01:17:02.900Z,85.18
2022-12-03T01:19:30.669Z,84.97
2022-12-03T01:21:58.451Z,84.79
2022-12-03T01:24:26.549Z,84.61
2022-12-03T01:26:56.121Z,84.71
2022-12-03T01:29:24.189Z,85.00
2022-12-03T01:32:10.626Z,85.18
2022-12-03T01:34:38.367Z,85.16
2022-12-03T01:37:06.057Z,85.04
2022-12-03T01:39:33.837Z,84.85
2022-12-03T01:42:01.926Z,84.48
2022-12-03T01:44:33.728Z,84.19
2022-12-03T01:47:03.838Z,84.44
2022-12-03T01:49:37.369Z,84.69
2022-12-03T01:52:05.626Z,84.88
2022-12-03T01:54:38.314Z,85.08
2022-12-03T01:57:13.779Z,85.26
2022-12-03T01:59:41.643Z,85.26
2022-12-03T02:02:19.310Z,85.08
2022-12-03T02:04:47.790Z,85.35
2022-12-03T02:07:21.671Z,85.52
2022-12-03T02:09:49.432Z,85.56
2022-12-03T02:12:19.715Z,85.50
2022-12-03T02:14:47.842Z,85.58
2022-12-03T02:17:16.092Z,85.68
2022-12-03T02:19:43.916Z,85.59
2022-12-03T02:22:24.064Z,85.71
2022-12-03T02:25:10.658Z,85.59
2022-12-03T02:27:38.764Z,85.32
2022-12-03T02:30:07.368Z,84.83
2022-12-03T02:32:35.227Z,84.73
2022-12-03T02:35:03.067Z,84.94
2022-12-03T02:37:34.157Z,84.95
2022-12-03T02:40:10.867Z,85.27
2022-12-03T02:42:39.483Z,85.18
2022-12-03T02:45:07.355Z,85.23
2022-12-03T02:47:36.560Z,85.25
2022-12-03T02:50:04.724Z,85.31
2022-12-03T02:52:32.683Z,85.48
2022-12-03T02:55:01.696Z,85.87
2022-12-03T02:57:29.542Z,86.10
2022-12-03T02:59:57.454Z,86.28
2022-12-03T03:02:25.223Z,86.39
2022-12-03T03:04:53.471Z,85.91
2022-12-03T03:07:21.560Z,85.77
2022-12-03T03:09:49.360Z,85.60
2022-12-03T03:12:17.358Z,85.61
2022-12-03T03:14:45.238Z,85.47
2022-12-03T03:17:13.011Z,85.62
2022-12-03T03:19:40.792Z,85.67
2022-12-03T03:22:09.892Z,85.38
2022-12-03T03:24:37.985Z,85.29
2022-12-03T03:27:06.017Z,85.40
2022-12-03T03:29:34.079Z,85.53
2022-12-03T03:32:03.077Z,85.37
2022-12-03T03:34:32.366Z,85.41
2022-12-03T03:37:00.081Z,85.43
2022-12-03T03:39:27.847Z,85.40
2022-12-03T03:41:55.635Z,85.16
2022-12-03T03:44:23.538Z,85.38
2022-12-03T03:46:51.471Z,85.52
2022-12-03T03:49:19.160Z,85.67
2022-12-03T03:51:47.146Z,85.47
2022-12-03T03:54:15.378Z,85.32
2022-12-03T03:56:43.183Z,85.24
2022-12-03T03:59:10.886Z,85.31
2022-12-03T04:01:38.911Z,85.46
2022-12-03T04:04:13.248Z,85.29
2022-12-03T04:06:40.962Z,85.16
2022-12-03T04:09:08.675Z,85.19
2022-12-03T04:11:54.921Z,85.37
2022-12-03T04:14:22.748Z,85.21
2022-12-03T04:16:50.504Z,85.08
2022-12-03T04:19:18.349Z,85.19
2022-12-03T04:22:04.653Z,85.52
2022-12-03T04:24:32.371Z,85.45
2022-12-03T04:27:18.530Z,85.54
2022-12-03T04:29:46.316Z,85.50
2022-12-03T04:32:32.853Z,85.44
2022-12-03T04:35:19.364Z,85.12
2022-12-03T04:37:47.251Z,84.94
2022-12-03T04:40:33.622Z,84.95
2022-12-03T04:43:01.303Z,85.07
2022-12-03T04:45:29.125Z,84.95
2022-12-03T04:47:56.836Z,84.78
2022-12-03T04:50:24.589Z,84.83
2022-12-03T04:52:52.429Z,84.63
2022-12-03T04:55:20.163Z,84.67
2022-12-03T04:57:47.883Z,84.82
2022-12-03T05:00:15.885Z,84.81
2022-12-03T05:02:43.765Z,84.74
2022-12-03T05:05:11.645Z,84.96
2022-12-03T05:07:39.453Z,84.89
2022-12-03T05:10:07.513Z,84.62
2022-12-03T05:12:35.304Z,84.51
2022-12-03T05:15:03.304Z,84.40
2022-12-03T05:17:31.089Z,84.40
2022-12-03T05:20:17.654Z,84.32
2022-12-03T05:22:45.379Z,84.40
2022-12-03T05:25:13.048Z,84.56
2022-12-03T05:27:40.781Z,84.26
2022-12-03T05:30:08.965Z,84.30
2022-12-03T05:32:36.686Z,84.58
2022-12-03T05:35:04.608Z,84.46
2022-12-03T05:37:32.378Z,84.45
2022-12-03T05:40:00.232Z,84.52
2022-12-03T05:42:46.825Z,85.03
2022-12-03T05:45:14.651Z,85.31
2022-12-03T05:47:42.344Z,85.60
2022-12-03T05:50:10.343Z,85.59
2022-12-03T05:52:38.016Z,85.66
2022-12-03T05:55:06.416Z,85.78
2022-12-03T05:57:34.140Z,85.65
2022-12-03T06:00:02.113Z,85.41
2022-12-03T06:02:30.063Z,85.64
2022-12-03T06:04:58.015Z,85.57
2022-12-03T06:07:25.942Z,85.30
2022-12-03T06:09:53.739Z,85.17
2022-12-03T06:12:21.465Z,85.06
2022-12-03T06:14:49.157Z,84.65
2022-12-03T06:17:16.916Z,84.53
2022-12-03T06:19:44.747Z,84.72
2022-12-03T06:22:12.636Z,84.84
2022-12-03T06:24:40.304Z,84.90
2022-12-03T06:27:08.103Z,84.93
2022-12-03T06:29:35.852Z,84.96
2022-12-03T06:32:04.333Z,85.00
2022-12-03T06:34:32.104Z,85.31
2022-12-03T06:36:59.846Z,85.45
2022-12-03T06:39:27.666Z,85.47
2022-12-03T06:41:55.397Z,85.71
2022-12-03T06:44:23.193Z,85.82
2022-12-03T06:46:50.934Z,85.90
2022-12-03T06:49:18.659Z,86.01
2022-12-03T06:51:46.591Z,86.04
2022-12-03T06:54:14.360Z,86.10
2022-12-03T06:56:45.388Z,86.26
2022-12-03T06:59:13.548Z,86.20
2022-12-03T07:01:41.393Z,86.39
2022-12-03T07:04:09.948Z,86.34
2022-12-03T07:06:37.842Z,86.54
2022-12-03T07:09:05.786Z,86.51
2022-12-03T07:11:39.620Z,86.74
2022-12-03T07:14:08.410Z,86.98
2022-12-03T07:16:36.249Z,86.84
2022-12-03T07:19:07.200Z,86.85
2022-12-03T07:21:35.133Z,86.87
2022-12-03T07:24:03.159Z,86.75
2022-12-03T07:26:31.089Z,86.74
2022-12-03T07:28:59.095Z,86.72
2022-12-03T07:31:27.314Z,86.95
2022-12-03T07:33:55.192Z,87.04
2022-12-03T07:36:23.094Z,86.72
2022-12-03T07:38:50.835Z,86.25
2022-12-03T07:41:18.602Z,86.26
2022-12-03T07:43:46.318Z,86.28
2022-12-03T07:46:14.158Z,86.61
2022-12-03T07:48:42.051Z,86.42
2022-12-03T07:51:12.910Z,86.16
2022-12-03T07:53:43.191Z,85.77
2022-12-03T07:56:11.112Z,85.71
2022-12-03T07:58:38.895Z,86.33
2022-12-03T08:01:06.641Z,86.60
2022-12-03T08:03:34.366Z,86.65
2022-12-03T08:06:02.104Z,86.91
2022-12-03T08:08:29.836Z,87.02
2022-12-03T08:10:57.681Z,86.79
2022-12-03T08:13:25.426Z,86.83
2022-12-03T08:15:53.294Z,86.47
2022-12-03T08:18:22.248Z,86.14
2022-12-03T08:20:51.189Z,86.01
2022-12-03T08:23:20.575Z,86.33
2022-12-03T08:25:49.331Z,86.44
2022-12-03T08:28:26.789Z,86.54
2022-12-03T08:31:02.617Z,86.20
2022-12-03T08:33:35.968Z,85.72
2022-12-03T08:36:14.680Z,85.58
2022-12-03T08:38:44.500Z,85.61
2022-12-03T08:41:14.468Z,85.87
2022-12-03T08:43:43.972Z,85.81
2022-12-03T08:46:15.982Z,85.92
2022-12-03T08:48:48.714Z,85.89
2022-12-03T08:51:20.406Z,85.93
2022-12-03T08:53:49.291Z,86.20
2022-12-03T08:56:16.959Z,86.20
2022-12-03T08:58:46.436Z,85.83
2022-12-03T09:01:14.180Z,86.18
2022-12-03T09:03:52.777Z,86.58
2022-12-03T09:06:21.380Z,86.74
2022-12-03T09:08:49.106Z,86.91
2022-12-03T09:11:16.916Z,86.92
2022-12-03T09:13:44.688Z,86.88
2022-12-03T09:16:12.446Z,86.85
2022-12-03T09:18:40.296Z,87.15
2022-12-03T09:21:07.961Z,87.08
2022-12-03T09:23:35.716Z,87.02
2022-12-03T09:26:03.505Z,87.32
2022-12-03T09:28:31.286Z,87.25
2022-12-03T09:30:59.051Z,87.22
2022-12-03T09:33:26.799Z,87.57
2022-12-03T09:35:54.490Z,87.11
2022-12-03T09:38:22.200Z,87.06
2022-12-03T09:40:50.015Z,87.23
2022-12-03T09:43:18.648Z,87.21
2022-12-03T09:45:47.361Z,86.78
2022-12-03T09:48:16.560Z,86.74
2022-12-03T09:50:44.898Z,86.35
2022-12-03T09:53:14.800Z,86.37
2022-12-03T09:55:43.457Z,86.49
2022-12-03T09:58:12.368Z,86.82
2022-12-03T10:00:41.234Z,86.80
2022-12-03T10:03:11.363Z,86.70
2022-12-03T10:05:42.541Z,86.55
2022-12-03T10:08:15.052Z,86.14
2022-12-03T10:10:42.834Z,86.07
2022-12-03T10:13:25.606Z,85.74
2022-12-03T10:15:55.434Z,85.83
2022-12-03T10:18:30.559Z,85.89
2022-12-03T10:20:58.912Z,86.07
2022-12-03T10:23:28.277Z,86.08
2022-12-03T10:26:00.762Z,85.59
2022-12-03T10:28:28.535Z,85.07
2022-12-03T10:30:56.804Z,85.20
2022-12-03T10:33:29.335Z,85.28
2022-12-03T10:35:57.215Z,85.35
2022-12-03T10:38:25.030Z,85.38
2022-12-03T10:40:52.771Z,85.32
2022-12-03T10:43:22.416Z,85.33
2022-12-03T10:46:03.773Z,85.27
2022-12-03T10:48:32.257Z,85.28
2022-12-03T10:51:04.698Z,85.37
2022-12-03T10:53:33.836Z,85.27
2022-12-03T10:56:03.637Z,85.12
2022-12-03T10:58:36.390Z,84.77
2022-12-03T11:01:10.777Z,84.61
2022-12-03T11:03:38.708Z,84.60
2022-12-03T11:06:06.632Z,84.83
2022-12-03T11:08:35.764Z,85.21
2022-12-03T11:11:03.580Z,84.97
2022-12-03T11:13:34.248Z,84.98
2022-12-03T11:16:03.332Z,84.88
2022-12-03T11:18:37.311Z,84.61
2022-12-03T11:21:06.877Z,84.59
2022-12-03T11:23:46.877Z,84.63
2022-12-03T11:26:19.901Z,84.70
2022-12-03T11:28:47.896Z,84.92
2022-12-03T11:31:34.014Z,84.91
2022-12-03T11:34:17.296Z,84.92
2022-12-03T11:37:04.011Z,85.00
2022-12-03T11:39:55.582Z,85.40
2022-12-03T11:42:26.808Z,85.00
2022-12-03T11:45:03.869Z,85.18
2022-12-03T11:47:35.029Z,85.16
2022-12-03T11:50:03.646Z,85.05
2022-12-03T11:52:33.112Z,84.98
2022-12-03T11:55:02.932Z,84.98
2022-12-03T11:57:33.163Z,85.04
2022-12-03T12:00:03.878Z,85.12
2022-12-03T12:02:31.618Z,84.88
2022-12-03T12:05:14.725Z,84.84
2022-12-03T12:07:42.486Z,85.01
2022-12-03T12:10:11.112Z,85.11
2022-12-03T12:12:40.992Z,85.14
2022-12-03T12:15:27.466Z,85.25
2022-12-03T12:17:55.293Z,84.94
2022-12-03T12:20:27.119Z,84.81
2022-12-03T12:22:55.380Z,84.91
2022-12-03T12:25:40.266Z,84.83
2022-12-03T12:28:08.569Z,84.81
2022-12-03T12:30:36.305Z,84.84
2022-12-03T12:33:13.004Z,84.40
2022-12-03T12:35:41.039Z,84.27
2022-12-03T12:38:11.695Z,84.39
2022-12-03T12:40:40.839Z,84.18
2022-12-03T12:43:19.013Z,84.16
2022-12-03T12:45:52.735Z,84.23
2022-12-03T12:48:28.704Z,84.09
2022-12-03T12:51:01.884Z,83.91
2022-12-03T12:53:32.167Z,84.10
2022-12-03T12:56:26.356Z,83.97
2022-12-03T12:58:54.284Z,83.73
2022-12-03T13:01:24.911Z,83.72
2022-12-03T13:03:53.274Z,83.92
2022-12-03T13:06:25.654Z,83.78
2022-12-03T13:08:53.562Z,83.79
2022-12-03T13:11:24.473Z,83.80
2022-12-03T13:13:52.728Z,83.89
2022-12-03T13:16:26.676Z,84.05
2022-12-03T13:18:58.750Z,84.40
2022-12-03T13:21:35.830Z,84.46
2022-12-03T13:24:20.101Z,84.32
2022-12-03T13:26:47.729Z,84.49
2022-12-03T13:29:17.845Z,84.64
2022-12-03T13:32:24.471Z,84.58
2022-12-03T13:34:52.503Z,84.55
2022-12-03T13:37:22.455Z,84.41
2022-12-03T13:39:51.298Z,84.33
2022-12-03T13:42:38.145Z,84.68
2022-12-03T13:45:15.117Z,85.04
2022-12-03T13:47:47.340Z,84.98
2022-12-03T13:50:24.365Z,84.78
2022-12-03T13:52:53.103Z,84.63
2022-12-03T13:55:28.516Z,84.87
2022-12-03T13:57:56.295Z,84.78
2022-12-03T14:00:24.389Z,84.64
2022-12-03T14:02:52.263Z,84.73
2022-12-03T14:05:21.170Z,84.71
2022-12-03T14:07:48.947Z,84.61
2022-12-03T14:10:16.922Z,84.57
2022-12-03T14:12:44.637Z,84.49
2022-12-03T14:15:12.487Z,84.43
2022-12-03T14:17:40.270Z,84.56
2022-12-03T14:20:08.384Z,84.75
2022-12-03T14:22:39.227Z,85.14
2022-12-03T14:25:07.503Z,84.87
2022-12-03T14:27:35.276Z,84.91
2022-12-03T14:30:03.659Z,84.85
2022-12-03T14:32:31.605Z,84.66
2022-12-03T14:34:59.380Z,84.36
2022-12-03T14:37:27.194Z,84.61
2022-12-03T14:39:55.123Z,84.83
2022-12-03T14:42:23.066Z,85.11
2022-12-03T14:44:51.471Z,85.19
2022-12-03T14:47:20.341Z,85.11
2022-12-03T14:49:48.148Z,85.26
2022-12-03T14:52:16.051Z,85.21
2022-12-03T14:54:43.949Z,85.27
2022-12-03T14:57:15.267Z,85.29
2022-12-03T14:59:43.539Z,85.44
2022-12-03T15:02:11.842Z,85.44
2022-12-03T15:04:40.062Z,85.55
2022-12-03T15:07:07.829Z,85.63
2022-12-03T15:09:35.586Z,85.44
2022-12-03T15:12:04.147Z,84.87
2022-12-03T15:14:31.983Z,84.77
2022-12-03T15:16:59.809Z,85.11
2022-12-03T15:19:27.658Z,85.68
2022-12-03T15:21:55.460Z,86.07
2022-12-03T15:24:23.234Z,85.97
2022-12-03T15:26:52.477Z,86.15
2022-12-03T15:29:20.491Z,86.12
2022-12-03T15:31:48.342Z,86.18
2022-12-03T15:34:21.870Z,86.24
2022-12-03T15:36:51.271Z,86.35
2022-12-03T15:39:19.259Z,86.14
2022-12-03T15:41:48.505Z,86.14
2022-12-03T15:44:16.201Z,86.41
2022-12-03T15:46:43.985Z,86.77
2022-12-03T15:49:11.926Z,86.97
2022-12-03T15:51:39.656Z,86.69
2022-12-03T15:54:07.463Z,86.95
2022-12-03T15:56:37.930Z,86.95
2022-12-03T15:59:05.827Z,86.85
2022-12-03T16:01:33.944Z,86.56
2022-12-03T16:04:01.806Z,86.65
2022-12-03T16:06:29.563Z,86.60
2022-12-03T16:08:57.268Z,86.55
2022-12-03T16:11:24.936Z,86.98
2022-12-03T16:13:52.638Z,86.71
2022-12-03T16:16:20.477Z,86.75
2022-12-03T16:18:48.394Z,86.89
2022-12-03T16:21:16.122Z,86.78
2022-12-03T16:23:43.964Z,86.92
2022-12-03T16:26:11.759Z,87.06
2022-12-03T16:28:39.447Z,86.94
2022-12-03T16:31:07.479Z,86.83
2022-12-03T16:33:35.267Z,86.82
2022-12-03T16:36:03.128Z,86.84
2022-12-03T16:38:31.106Z,87.08
2022-12-03T16:40:59.017Z,87.03
2022-12-03T16:43:26.773Z,86.94
2022-12-03T16:46:20.817Z,86.80
2022-12-03T16:48:49.574Z,86.97
2022-12-03T16:51:19.445Z,86.79
2022-12-03T16:53:47.376Z,86.96
2022-12-03T16:56:15.250Z,87.12
2022-12-03T16:58:43.418Z,87.25
2022-12-03T17:01:11.280Z,87.29
2022-12-03T17:03:39.118Z,87.46
2022-12-03T17:06:07.020Z,87.66
2022-12-03T17:08:34.750Z,87.52
2022-12-03T17:11:02.638Z,87.62
2022-12-03T17:13:30.552Z,87.63
2022-12-03T17:15:59.043Z,87.72
2022-12-03T17:18:26.896Z,87.70
2022-12-03T17:20:54.630Z,87.83
2022-12-03T17:23:22.522Z,87.74
2022-12-03T17:25:50.265Z,87.26
2022-12-03T17:28:18.010Z,87.24
2022-12-03T17:30:45.839Z,87.32
2022-12-03T17:33:13.667Z,88.05
2022-12-03T17:35:41.499Z,88.69
2022-12-03T17:38:09.647Z,88.65
2022-12-03T17:40:37.375Z,89.10
2022-12-03T17:43:05.548Z,89.09
2022-12-03T17:45:33.261Z,88.72
2022-12-03T17:48:00.981Z,88.29
2022-12-03T17:50:28.732Z,88.68
2022-12-03T17:52:56.522Z,89.41
2022-12-03T17:55:34.671Z,89.60
2022-12-03T17:58:07.964Z,89.69
2022-12-03T18:00:35.895Z,89.52
2022-12-03T18:03:03.659Z,90.12
2022-12-03T18:05:31.353Z,90.27
2022-12-03T18:07:59.201Z,90.26
2022-12-03T18:10:27.270Z,90.11
2022-12-03T18:13:01.245Z,90.15
2022-12-03T18:15:29.734Z,89.68
2022-12-03T18:17:57.561Z,89.60
2022-12-03T18:20:25.322Z,89.18
2022-12-03T18:22:53.169Z,89.24
2022-12-03T18:25:20.939Z,89.00
2022-12-03T18:27:48.637Z,88.99
2022-12-03T18:30:16.634Z,88.98
2022-12-03T18:32:44.488Z,89.26
2022-12-03T18:35:12.336Z,89.38
2022-12-03T18:37:40.872Z,89.62
2022-12-03T18:40:16.302Z,89.65
2022-12-03T18:42:44.308Z,90.18
2022-12-03T18:45:13.267Z,90.51
2022-12-03T18:47:41.124Z,90.86
2022-12-03T18:50:09.700Z,90.53
2022-12-03T18:52:37.683Z,90.05
2022-12-03T18:55:05.940Z,90.31
2022-12-03T18:57:33.781Z,90.60
2022-12-03T19:00:01.797Z,90.58
2022-12-03T19:03:01.171Z,90.26
2022-12-03T19:05:17.341Z,90.37
2022-12-03T19:07:45.107Z,90.62
2022-12-03T19:10:12.966Z,90.75
2022-12-03T19:12:40.706Z,91.48
2022-12-03T19:15:08.652Z,91.41
2022-12-03T19:17:36.420Z,91.12
2022-12-03T19:20:05.376Z,91.34
2022-12-03T19:22:33.185Z,91.50
2022-12-03T19:25:01.028Z,91.61
2022-12-03T19:27:32.180Z,91.54
2022-12-03T19:29:59.882Z,91.83
2022-12-03T19:32:27.597Z,91.97
2022-12-03T19:34:55.289Z,91.73
2022-12-03T19:37:23.149Z,91.56
2022-12-03T19:39:53.124Z,91.51
2022-12-03T19:42:21.073Z,91.11
2022-12-03T19:44:48.885Z,91.06
2022-12-03T19:47:16.691Z,91.06
2022-12-03T19:49:44.358Z,91.15
2022-12-03T19:52:12.072Z,90.73
2022-12-03T19:54:39.844Z,90.33
2022-12-03T19:57:07.628Z,89.81
2022-12-03T19:59:35.364Z,89.11
2022-12-03T20:02:03.162Z,89.27
2022-12-03T20:04:31.385Z,89.79
2022-12-03T20:06:59.101Z,90.33
2022-12-03T20:09:26.774Z,90.27
2022-12-03T20:11:54.674Z,90.13
2022-12-03T20:14:22.497Z,90.15
2022-12-03T20:16:50.402Z,90.40
2022-12-03T20:19:18.610Z,91.01
2022-12-03T20:21:46.397Z,91.19
2022-12-03T20:24:15.341Z,91.09
2022-12-03T20:26:43.297Z,91.29
2022-12-03T20:29:11.184Z,91.34
2022-12-03T20:31:39.017Z,91.29
2022-12-03T20:34:07.308Z,91.46
2022-12-03T20:36:35.129Z,91.56
2022-12-03T20:39:04.211Z,91.65
2022-12-03T20:41:34.173Z,91.80
2022-12-03T20:44:03.287Z,91.93
2022-12-03T20:46:33.395Z,91.90
2022-12-03T20:49:03.807Z,91.53
2022-12-03T20:51:32.389Z,91.49
2022-12-03T20:54:00.942Z,91.48
2022-12-03T20:56:39.450Z,91.43
2022-12-03T20:59:13.235Z,91.48
2022-12-03T21:01:41.629Z,91.48
2022-12-03T21:04:13.495Z,91.17
2022-12-03T21:06:42.536Z,91.26
2022-12-03T21:09:11.548Z,90.75
2022-12-03T21:11:41.583Z,90.78
2022-12-03T21:14:11.379Z,90.51
2022-12-03T21:19:30.739Z,90.64
2022-12-03T21:21:58.758Z,90.57
2022-12-03T21:24:29.422Z,90.78
2022-12-03T21:26:58.537Z,90.86
2022-12-03T21:29:26.226Z,91.27
2022-12-03T21:31:54.064Z,91.57
2022-12-03T21:34:21.845Z,91.24
2022-12-03T21:36:53.345Z,91.14
2022-12-03T21:39:21.490Z,91.15
2022-12-03T21:42:18.729Z,91.02
2022-12-03T21:44:37.250Z,91.16
2022-12-03T21:47:12.407Z,91.31
2022-12-03T21:49:42.787Z,91.26
2022-12-03T21:52:11.118Z,91.44
2022-12-03T21:54:41.347Z,91.30
2022-12-03T21:57:10.370Z,90.98
2022-12-03T21:59:38.394Z,90.56
2022-12-03T22:02:06.718Z,90.51
2022-12-03T22:04:34.792Z,90.64
2022-12-03T22:07:02.682Z,90.96
2022-12-03T22:09:31.329Z,90.78
2022-12-03T22:12:00.945Z,90.52
2022-12-03T22:14:31.702Z,90.51
2022-12-03T22:17:01.963Z,90.64
2022-12-03T22:19:29.688Z,90.94
2022-12-03T22:21:57.449Z,91.04
2022-12-03T22:24:25.184Z,90.96
2022-12-03T22:26:54.964Z,90.72
2022-12-03T22:29:22.799Z,90.24
2022-12-03T22:31:55.574Z,90.81
2022-12-03T22:34:28.677Z,91.49
2022-12-03T22:36:56.621Z,91.96
2022-12-03T22:39:24.403Z,91.86
2022-12-03T22:41:52.073Z,91.54
2022-12-03T22:44:20.116Z,91.77
2022-12-03T22:46:47.998Z,91.69
2022-12-03T22:49:16.032Z,91.63
2022-12-03T22:51:46.988Z,91.09
2022-12-03T22:54:17.139Z,90.77
2022-12-03T22:56:48.582Z,90.95
2022-12-03T22:59:16.299Z,90.98
2022-12-03T23:01:44.063Z,90.62
2022-12-03T23:04:15.326Z,90.38
2022-12-03T23:06:43.797Z,90.36
2022-12-03T23:09:11.651Z,90.66
2022-12-03T23:11:39.702Z,90.89
2022-12-03T23:14:07.480Z,90.13
2022-12-03T23:16:35.311Z,89.78
2022-12-03T23:19:03.547Z,90.11
2022-12-03T23:21:37.366Z,90.67
2022-12-03T23:24:06.582Z,91.40
2022-12-03T23:26:35.939Z,91.58
2022-12-03T23:29:05.297Z,91.57
2022-12-03T23:31:33.411Z,91.72
2022-12-03T23:34:01.763Z,91.82
2022-12-03T23:36:30.199Z,91.67
2022-12-03T23:39:00.863Z,91.29
2022-12-03T23:41:28.514Z,90.58
2022-12-03T23:43:56.785Z,90.58
2022-12-03T23:46:26.163Z,90.58
2022-12-03T23:48:53.916Z,91.04
2022-12-03T23:51:23.509Z,91.10
2022-12-03T23:53:52.882Z,90.50
2022-12-03T23:56:22.669Z,90.21
2022-12-03T23:58:50.522Z,90.50
